Flight Track Log - Related Links

Times and Time Zones

All times are in EDT time to prevent confusion due to time zone crossing. See the VNR104 flight status page for this flight to view local times or setup timezone preferences in your user account.

Time Position Orientation Groundspeed Altitude Reporting Facility
EDT Latitude Longitude Course Direction KTS MPH feet Rate Location/Type
Fri 10:35:04 PM 35.0236 -106.7233 280° West 208 239 8,500  Level Albuquerque Center
Fri 10:35:52 PM 35.0339 -106.7814 282° West 219 252 9,800 1,854 Climbing Albuquerque Center
Fri 10:37:07 PM 35.0539 -106.8781 284° West 248 285 12,300 1,941 Climbing Albuquerque Center
Fri 10:38:08 PM 35.0703 -106.9456 287° West 249 287 14,200 1,623 Climbing Albuquerque Center
Fri 10:39:09 PM 35.0894 -107.0317 285° West 259 298 15,600 2,213 Climbing Albuquerque Center
Fri 10:40:10 PM 35.1017 -107.1356 278° West 258 297 18,700 2,361 Climbing Albuquerque Center
Fri 10:41:11 PM 35.1100 -107.2192 277° West 258 297 20,400 1,721 Climbing Albuquerque Center
Fri 10:42:12 PM 35.1053 -107.3081 266° West 262 302 22,200 1,854 Climbing Albuquerque Center
Fri 10:43:14 PM 35.0997 -107.4006 266° West 271 312 24,200 1,805 Climbing Albuquerque Center
Fri 10:44:15 PM 35.1069 -107.4886 276° West 265 305 25,900 885 Climbing Albuquerque Center
Fri 10:45:16 PM 35.1206 -107.5883 280° West 293 337 26,000 246 Climbing Albuquerque Center
Fri 10:46:17 PM 35.1331 -107.7192 277° West 335 386 26,400 984 Climbing Albuquerque Center
Fri 10:47:18 PM 35.1442 -107.8242 277° West 331 381 28,000 780 Climbing Albuquerque Center
Fri 10:48:20 PM 35.1561 -107.9317 278° West 330 380 28,000  Level Albuquerque Center
Fri 10:49:21 PM 35.1719 -108.0656 278° West 349 402 28,000  Level Albuquerque Center
Fri 10:50:22 PM 35.1831 -108.1844 277° West 362 417 28,000  Level Albuquerque Center
Fri 10:51:23 PM 35.1981 -108.3258 277° West 372 428 28,000  Level Albuquerque Center
Fri 10:52:24 PM 35.2114 -108.4450 278° West 370 426 28,000  Level Albuquerque Center
Fri 10:53:26 PM 35.2228 -108.5656 277° West 371 427 28,000  Level Albuquerque Center
Fri 10:54:27 PM 35.2364 -108.7075 277° West 374 430 28,000  Level Albuquerque Center
Fri 10:55:28 PM 35.2447 -108.8292 275° West 374 430 28,000  Level Albuquerque Center
Fri 10:56:29 PM 35.2589 -108.9506 278° West 375 432 28,000  Level Albuquerque Center
Fri 10:57:30 PM 35.2722 -109.0944 277° West 379 436 28,000  Level Albuquerque Center
Fri 10:58:31 PM 35.2844 -109.2161 277° West 377 434 28,000  Level Albuquerque Center
Fri 10:59:32 PM 35.2967 -109.3403 277° West 380 437 28,000  Level Albuquerque Center
Fri 11:00:34 PM 35.3108 -109.4839 277° West 381 438 28,000  Level Albuquerque Center
Fri 11:01:35 PM 35.3217 -109.6056 276° West 378 435 28,000  Level Albuquerque Center
Fri 11:02:36 PM 35.3353 -109.7500 277° West 379 436 28,000  Level Albuquerque Center
Fri 11:03:37 PM 35.3472 -109.8756 277° West 386 444 28,000  Level Albuquerque Center
Fri 11:04:38 PM 35.3581 -109.9969 276° West 380 437 28,000  Level Albuquerque Center
Fri 11:05:39 PM 35.3700 -110.1386 276° West 375 432 28,000  Level Albuquerque Center
Fri 11:06:40 PM 35.3797 -110.2617 276° West 378 435 28,000  Level Albuquerque Center
Fri 11:07:42 PM 35.3894 -110.3839 276° West 378 435 28,000  Level Albuquerque Center
Fri 11:08:43 PM 35.4011 -110.5269 276° West 377 434 28,000  Level Albuquerque Center
Fri 11:09:44 PM 35.4122 -110.6497 276° West 378 435 28,000  Level Albuquerque Center
Fri 11:10:45 PM 35.4219 -110.7700 276° West 375 432 28,000  Level Albuquerque Center
Fri 11:11:46 PM 35.4344 -110.9142 276° West 379 436 28,000  Level Albuquerque Center
Fri 11:12:47 PM 35.4456 -111.0408 276° West 385 443 28,000  Level Albuquerque Center
Fri 11:13:49 PM 35.4564 -111.1872 275° West 387 445 28,000  Level Albuquerque Center
Fri 11:14:50 PM 35.4681 -111.3131 277° West 388 447 28,000  Level Albuquerque Center
Fri 11:15:51 PM 35.4783 -111.4481 275° West 386 444 28,000  Level Albuquerque Center
Fri 11:16:52 PM 35.4889 -111.5789 276° West 389 448 28,000  Level Albuquerque Center
Fri 11:17:54 PM 35.4986 -111.7089 275° West 386 444 28,000  Level Albuquerque Center
Fri 11:18:55 PM 35.5031 -111.8389 272° West 385 443 28,000  Level Albuquerque Center
Fri 11:19:56 PM 35.5106 -111.9700 274° West 388 447 28,000 -246 Level Albuquerque Center
Fri 11:20:57 PM 35.5303 -112.1003 281° West 391 450 27,500 -578 Descending Albuquerque Center
Fri 11:21:19 PM 35.5347 -112.1531 276° West 393 452 27,200 -787 Descending Los Angeles Center
Fri 11:21:58 PM 35.5547 -112.2233 289° West 369 425 26,700 -832 Descending Albuquerque Center
Fri 11:23:00 PM 35.5928 -112.3669 288° West 373 429 25,800 -714 Descending Albuquerque Center
Fri 11:23:22 PM 35.6000 -112.3928 289° West 376 433 25,700 -714 Descending Los Angeles Center
Fri 11:24:24 PM 35.6381 -112.5428 287° West 388 447 24,800 -780 Descending Los Angeles Center
Fri 11:25:25 PM 35.6681 -112.6633 287° West 381 438 24,100 -488 Descending Los Angeles Center
Fri 11:26:27 PM 35.7008 -112.7881 288° West 376 433 23,800 -677 Descending Los Angeles Center
Fri 11:27:29 PM 35.7308 -112.9103 287° West 378 435 22,700 -1,073 Descending Los Angeles Center
Fri 11:28:30 PM 35.7603 -113.0303 287° West 373 429 21,600 -1,171 Descending Los Angeles Center
Fri 11:29:32 PM 35.7961 -113.1747 287° West 372 428 20,300 -1,220 Descending Los Angeles Center
Fri 11:30:33 PM 35.8236 -113.2883 287° West 360 414 19,100 -1,122 Descending Los Angeles Center
Fri 11:31:35 PM 35.8517 -113.4011 287° West 351 404 18,000 -1,016 Descending Los Angeles Center
Fri 11:32:37 PM 35.8783 -113.5117 287° West 344 396 17,000 -1,073 Descending Los Angeles Center
Fri 11:33:38 PM 35.9061 -113.6217 287° West 332 382 15,800 -1,122 Descending Los Angeles Center
Fri 11:34:40 PM 35.9314 -113.7275 286° West 325 374 14,700 -1,210 Descending Los Angeles Center
Fri 11:35:42 PM 35.9622 -113.8558 287° West 324 373 13,300 -1,220 Descending Los Angeles Center
Fri 11:36:43 PM 35.9858 -113.9583 286° West 313 360 12,200 -1,073 Descending Los Angeles Center
Fri 11:37:45 PM 36.0108 -114.0603 287° West 311 358 11,100 -919 Descending Los Angeles Center
Fri 11:38:47 PM 36.0347 -114.1628 286° West 309 356 10,300 -541 Descending Los Angeles Center
Fri 11:39:47 PM 36.0639 -114.2719 288° West 312 359 10,000 -149 Descending Los Angeles Center
Fri 11:40:48 PM 36.0931 -114.3633 292° West 295 339 10,000 -197 Level Los Angeles Center
Fri 11:41:49 PM 36.1303 -114.4522 297° West 301 346 9,600 -776 Descending Los Angeles Center
Fri 11:42:44 PM 36.1097 -114.5444 255° West 295 339 8,500 -1,180 Descending Los Angeles Center
Fri 11:43:51 PM 36.0278 -114.6042 211° Southwest 309 356 7,200 -940 Descending Los Angeles Center
Fri 11:44:07 PM 36.0211 -114.6039 178° South 307 353 7,200 -222 Level Los Angeles Center
Fri 11:44:45 PM 35.9694 -114.6531 218° Southwest 297 342 7,000 -194 Descending Los Angeles Center
Fri 11:45:09 PM 35.9472 -114.6819 226° Southwest 295 339 7,000  Level Los Angeles Center
Fri 11:45:46 PM 35.9117 -114.7336 230° Southwest 292 336 7,000  Level Los Angeles Center
Fri 11:46:10 PM 35.8950 -114.7589 231° Southwest 292 336 7,000  Level Los Angeles Center
Fri 11:46:47 PM 35.8772 -114.8222 251° West 287 330 7,000  Level Los Angeles Center
Fri 11:47:12 PM 35.8650 -114.8508 242° Southwest 289 333 7,000  Level Los Angeles Center
Fri 11:47:54 PM 35.8392 -114.9250 247° West 294 338 7,000  Level Los Angeles Center
Fri 11:48:14 PM 35.8361 -114.9456 260° West 292 336 7,000  Level Los Angeles Center
Fri 11:48:55 PM 35.8342 -115.0194 268° West 259 298 7,000  Level Los Angeles Center
Fri 11:49:15 PM 35.8333 -115.0369 267° West 274 315 7,000  Level Los Angeles Center
Fri 11:49:56 PM 35.8242 -115.1025 260° West 250 288 7,000  Level Los Angeles Center
Fri 11:50:17 PM 35.8233 -115.1192 266° West 256 295 7,000  Level Los Angeles Center
Fri 11:50:56 PM 35.8100 -115.1867 256° West 243 280 7,000  Level Los Angeles Center
Fri 11:51:31 PM 35.8086 -115.2014 263° West 248 285 7,000  Level Los Angeles Center
Fri 11:51:51 PM 35.8217 -115.2492 289° West 221 254 7,000  Level Los Angeles Center
Fri 11:52:33 PM 35.8508 -115.2806 319° Northwest 215 247 7,000  Level Los Angeles Center
Fri 11:52:52 PM 35.8644 -115.2881 336° Northwest 175 201 7,000 -590 Level Los Angeles Center
Fri 11:53:34 PM 35.8944 -115.2789 14° North 195 224 6,400 -1,075 Descending Los Angeles Center
Fri 11:53:59 PM 35.9108 -115.2625 39° Northeast 191 220 5,800 -1,065 Descending Los Angeles Center
Fri 11:54:36 PM 35.9372 -115.2472 25° Northeast 187 215 5,300 -984 Descending Los Angeles Center
Fri 11:55:00 PM 35.9550 -115.2372 24° Northeast 170 196 4,800 -387 Descending Los Angeles Center
Fri 11:55:38 PM 35.9758 -115.2233 28° Northeast 183 211 4,900 -764 Climbing Los Angeles Center
Fri 11:55:55 PM 35.9917 -115.2172 17° North 144 166 4,100 -1,091 Descending Los Angeles Center
Fri 11:56:55 PM 36.0228 -115.2017 22° Northeast 122 140 3,500 -610 Descending Los Angeles Center
Fri 11:57:53 PM 36.0489 -115.1833 30° Northeast 121 139 2,900 -700 Descending Los Angeles Center
Fri 11:58:55 PM 36.0814 -115.1653 24° Northeast 129 148 2,100 -774 Descending Los Angeles Center

Login

Don't have an account? Register now (free) for customized features, flight alerts, and more!